logo
Search for airport 
image banner adimage banner adimage banner ad
image banner ad

FAKURU - Kuruman / Johan Pienaar

Located in , South Africa

ICAO - , IATA -

Data provided by Airmate  

General information

Coordinates: S27°27'35" E23°24'45"
Elevation is 4383 feet MSL.
 
View others Airports in Northern Cape

Operational data

Special qualification required
Current time UTC:
Current local time:
Weather at : - ( 0 km )
METAR: PAJC 181127Z AUTO 06007KT 4SM RA BR OVC007 04/03 A2964 RMK AO2 P0009 $
View NOTAMs / SUP AIP / TFR affecting this airport [VIEW]
Communications frequencies: [VIEW]

Runways:

RWY identifierQFULength (ft)Width (ft)SurfaceLDA (ft)
02165°557749ASPH
20345°557749ASPH

Airport contact information

Address: South Africa

Satellite view of FAKURU